Time;durP1;ratioP1;P1;durP2;ratioP2;P2;SDS_P1;SDS_P2;PMS_P1;PMS_P2;Temp;Humidity;BMP_temperature;BMP_pressure;BME280_temperature;BME280_humidity;BME280_pressure;Samples;Min_cycle;Max_cycle;Signal;HPM_P1;HPM_P2
2022/09/18 00:01:41;;;;;;;6.13;2.85;;;;;;;15.71;62.45;100907.41;5084592;28;20389;-76
2022/09/18 00:04:11;;;;;;;4.30;2.72;;;;;;;15.58;62.40;100907.84;5069322;28;20131;-80
2022/09/18 00:06:40;;;;;;;7.28;2.92;;;;;;;15.50;62.42;100902.44;5084362;28;20056;-80
2022/09/18 00:09:10;;;;;;;3.97;2.70;;;;;;;15.10;63.05;100844.28;5069055;28;20521;-81
2022/09/18 00:11:46;;;;;;;4.28;2.40;;;;;;;15.43;62.81;100903.25;5067749;28;20571;-79
2022/09/18 00:14:22;;;;;;;8.13;2.50;;;;;;;15.44;61.95;100899.56;5069613;28;20208;-78
2022/09/18 00:16:49;;;;;;;3.30;2.10;;;;;;;15.40;60.93;100904.41;5068064;28;20040;-78
2022/09/18 00:19:17;;;;;;;3.97;2.30;;;;;;;15.38;61.58;100901.06;5068084;28;20135;-80
2022/09/18 00:21:47;;;;;;;6.93;1.92;;;;;;;15.28;61.31;100861.06;5068008;28;20053;-79
2022/09/18 00:24:16;;;;;;;3.20;1.85;;;;;;;15.41;60.21;100890.03;5067644;28;20051;-80
2022/09/18 00:26:43;;;;;;;4.40;1.63;;;;;;;15.40;61.25;100899.06;5068688;28;20072;-80
2022/09/18 00:29:11;;;;;;;2.88;1.48;;;;;;;15.34;60.72;100907.72;5084089;28;20134;-80
2022/09/18 00:31:38;;;;;;;7.25;1.63;;;;;;;15.15;60.07;100890.09;5067372;28;20443;-79
2022/09/18 00:34:09;;;;;;;2.72;1.40;;;;;;;15.05;60.56;100879.50;5067314;28;20052;-79
2022/09/18 00:36:38;;;;;;;2.45;1.67;;;;;;;13.86;60.61;100679.72;5067537;28;20268;-79
2022/09/18 00:39:05;;;;;;;3.35;1.77;;;;;;;15.24;60.18;100907.84;5072169;28;20096;-79
2022/09/18 00:41:35;;;;;;;2.45;1.35;;;;;;;15.15;59.12;100908.81;5074370;28;20139;-79
2022/09/18 00:44:33;;;;;;;6.43;1.50;;;;;;;14.77;58.64;100851.28;5072149;28;20048;-78
2022/09/18 00:47:08;;;;;;;2.75;1.55;;;;;;;15.17;60.20;100888.94;5067883;28;20056;-78
2022/09/18 00:49:38;;;;;;;6.57;1.10;;;;;;;15.29;59.87;100899.34;5067182;28;20164;-78
2022/09/18 00:52:06;;;;;;;2.17;1.48;;;;;;;15.10;60.39;100871.84;5067394;28;20207;-78
2022/09/18 00:54:34;;;;;;;3.33;1.73;;;;;;;15.22;60.52;100895.63;5067271;28;20051;-79
2022/09/18 00:57:08;;;;;;;5.53;1.88;;;;;;;15.20;60.74;100892.28;5067216;28;20057;-79
2022/09/18 00:59:36;;;;;;;5.75;2.03;;;;;;;15.17;60.86;100891.59;5067217;28;20412;-78
2022/09/18 01:02:03;;;;;;;4.13;1.45;;;;;;;14.97;60.21;100847.38;5066755;28;20147;-78
2022/09/18 01:04:31;;;;;;;4.35;1.75;;;;;;;15.27;60.30;100898.69;5067007;28;20076;-78
2022/09/18 01:07:27;;;;;;;1.77;1.52;;;;;;;15.26;59.93;100902.34;5066457;28;20413;-78
2022/09/18 01:10:13;;;;;;;3.55;1.80;;;;;;;15.34;60.24;100905.03;5066918;28;20136;-79
2022/09/18 01:12:57;;;;;;;3.20;1.52;;;;;;;15.34;59.87;100902.38;5066834;28;20083;-78
2022/09/18 01:15:45;;;;;;;2.72;1.65;;;;;;;15.30;59.29;100903.69;5068003;28;20141;-77
2022/09/18 01:18:32;;;;;;;5.85;1.70;;;;;;;15.29;59.07;100902.88;5068231;28;20119;-76
2022/09/18 01:21:11;;;;;;;3.05;1.30;;;;;;;15.27;58.74;100902.19;5066630;28;20052;-78
2022/09/18 01:24:09;;;;;;;3.30;1.50;;;;;;;15.22;58.16;100900.97;5067331;28;20053;-80
2022/09/18 01:26:45;;;;;;;2.72;1.30;;;;;;;15.21;58.30;100896.63;5066403;28;20048;-78
2022/09/18 01:29:44;;;;;;;2.20;1.42;;;;;;;15.04;57.41;100883.16;5066175;28;20135;-77
2022/09/18 01:32:32;;;;;;;4.18;1.50;;;;;;;14.29;58.77;100762.59;5043555;28;20064;-80
2022/09/18 01:35:13;;;;;;;2.30;1.30;;;;;;;14.84;58.42;100868.34;5065934;28;20060;-79
2022/09/18 01:38:08;;;;;;;2.38;1.02;;;;;;;14.94;58.92;100910.00;5053932;28;20506;-78
2022/09/18 01:40:40;;;;;;;3.42;1.60;;;;;;;14.81;58.89;100895.41;5066139;28;20405;-79
2022/09/18 01:43:10;;;;;;;3.30;1.23;;;;;;;14.84;59.19;100900.44;5065944;28;20260;-77
2022/09/18 01:45:43;;;;;;;1.25;1.15;;;;;;;14.94;59.44;100909.19;5065598;28;20053;-78
2022/09/18 01:48:17;;;;;;;2.40;1.25;;;;;;;14.94;59.43;100909.19;5066027;28;20058;-79
2022/09/18 01:50:52;;;;;;;6.63;1.17;;;;;;;14.83;59.56;100880.03;5065826;28;20051;-78
2022/09/18 01:53:24;;;;;;;1.33;1.15;;;;;;;14.98;58.94;100909.69;5066165;28;20084;-77
2022/09/18 01:55:55;;;;;;;1.52;1.27;;;;;;;14.76;58.82;100863.81;5065621;28;20079;-80
2022/09/18 01:58:23;;;;;;;;;;;;;;;15.05;59.14;100916.09;5066529;28;20136;-79
2022/09/18 02:00:56;;;;;;;1.85;1.05;;;;;;;15.10;58.60;100898.59;5067541;28;20359;-79
2022/09/18 02:03:28;;;;;;;;;;;;;;;15.20;58.09;100919.03;5077867;28;20129;-80
2022/09/18 02:06:02;;;;;;;3.20;1.27;;;;;;;15.29;56.79;100910.91;5081358;28;19927;-78
2022/09/18 02:08:36;;;;;;;4.32;1.00;;;;;;;15.38;56.94;100911.75;5086290;28;20098;-78
2022/09/18 02:11:07;;;;;;;1.75;1.27;;;;;;;15.47;57.22;100921.50;5089209;28;20103;-79
2022/09/18 02:14:08;;;;;;;1.90;1.42;;;;;;;15.42;57.87;100923.81;5087923;28;20349;-80
2022/09/18 02:16:47;;;;;;;1.92;1.20;;;;;;;15.30;58.35;100907.22;5064053;28;20068;-79
2022/09/18 02:19:24;;;;;;;2.30;1.05;;;;;;;15.36;57.74;100924.44;5065883;28;20153;-77
2022/09/18 02:21:53;;;;;;;3.33;1.48;;;;;;;15.18;58.28;100889.75;5065588;28;20157;-76
2022/09/18 02:24:23;;;;;;;4.78;1.90;;;;;;;15.27;58.21;100910.22;5065353;28;20070;-78
2022/09/18 02:26:52;;;;;;;3.70;1.20;;;;;;;15.23;58.74;100913.34;5064982;28;20121;-78
2022/09/18 02:29:22;;;;;;;4.05;1.42;;;;;;;15.20;59.07;100919.03;5064918;28;20151;-77
2022/09/18 02:31:49;;;;;;;2.38;1.02;;;;;;;14.76;58.89;100853.13;5065379;28;20044;-79
2022/09/18 02:34:18;;;;;;;1.52;1.30;;;;;;;15.05;59.15;100900.91;5065058;28;20045;-82
2022/09/18 02:37:01;;;;;;;1.20;1.10;;;;;;;14.94;59.75;100882.44;5066253;28;20054;-78
2022/09/18 02:39:52;;;;;;;1.83;1.45;;;;;;;15.10;59.61;100919.16;5064780;28;20496;-80
2022/09/18 02:42:22;;;;;;;2.47;1.73;;;;;;;14.70;60.20;100849.22;5065063;28;20094;-79
2022/09/18 02:44:52;;;;;;;2.13;1.38;;;;;;;14.66;60.27;100837.19;5066265;28;20583;-78
2022/09/18 02:47:38;;;;;;;2.92;1.60;;;;;;;15.05;60.87;100919.63;5067781;28;20559;-77
2022/09/18 02:50:10;;;;;;;5.40;2.03;;;;;;;15.01;60.64;100914.75;5067798;28;20048;-78
2022/09/18 02:52:40;;;;;;;3.42;1.80;;;;;;;14.98;60.14;100918.56;5064862;28;20047;-78
2022/09/18 02:55:27;;;;;;;6.50;2.10;;;;;;;14.95;60.96;100913.50;5064969;28;20522;-80
2022/09/18 02:58:08;;;;;;;3.38;1.80;;;;;;;14.81;60.33;100892.72;5064536;28;20045;-77
2022/09/18 03:00:35;;;;;;;5.28;1.98;;;;;;;14.71;60.48;100876.81;5064780;28;20045;-80
2022/09/18 03:03:02;;;;;;;4.72;1.80;;;;;;;14.84;61.56;100898.59;5064526;28;20149;-77
2022/09/18 03:05:29;;;;;;;7.47;1.90;;;;;;;14.83;61.47;100906.75;5064713;28;20056;-77
2022/09/18 03:07:55;;;;;;;3.17;1.80;;;;;;;14.72;61.00;100895.34;5064296;28;20548;-79
2022/09/18 03:10:22;;;;;;;2.08;1.60;;;;;;;14.77;60.88;100923.44;5064557;28;20573;-80
2022/09/18 03:12:48;;;;;;;3.08;1.95;;;;;;;14.26;60.62;100851.88;5081113;28;20488;-79
2022/09/18 03:15:15;;;;;;;2.45;1.67;;;;;;;14.67;60.41;100929.69;5081150;28;20629;-80
2022/09/18 03:17:42;;;;;;;2.67;1.58;;;;;;;14.56;60.58;100900.53;5064657;28;20535;-79
2022/09/18 03:20:08;;;;;;;2.17;1.58;;;;;;;14.67;59.80;100924.34;5081583;28;20456;-79
2022/09/18 03:22:35;;;;;;;2.13;1.45;;;;;;;14.61;59.62;100914.31;5064952;28;20292;-79
2022/09/18 03:25:01;;;;;;;4.80;1.30;;;;;;;14.44;59.74;100885.72;5081257;28;20052;-78
2022/09/18 03:27:28;;;;;;;2.25;1.08;;;;;;;14.66;59.30;100925.38;5069358;28;20566;-79
2022/09/18 03:29:55;;;;;;;2.80;1.42;;;;;;;14.58;58.49;100901.22;5068053;28;20185;-78
2022/09/18 03:32:22;;;;;;;3.80;1.17;;;;;;;14.73;57.22;100929.09;5068293;28;20049;-79
2022/09/18 03:34:48;;;;;;;2.88;1.05;;;;;;;14.03;57.47;100814.16;5068462;28;20049;-77
2022/09/18 03:37:15;;;;;;;3.40;1.60;;;;;;;14.52;58.37;100899.16;5068582;28;20106;-77
2022/09/18 03:39:42;;;;;;;3.35;1.00;;;;;;;14.55;57.73;100900.72;5068444;28;20049;-78
2022/09/18 03:42:08;;;;;;;1.75;1.20;;;;;;;14.73;57.31;100934.44;5069984;28;20140;-78
2022/09/18 03:44:35;;;;;;;0.95;0.73;;;;;;;14.56;56.64;100897.88;5068371;28;20479;-78
2022/09/18 03:47:01;;;;;;;2.40;1.20;;;;;;;14.72;56.49;100935.41;5068599;28;20052;-78
2022/09/18 03:49:28;;;;;;;1.95;0.95;;;;;;;14.65;55.96;100926.34;5068276;28;20058;-76
2022/09/18 03:51:55;;;;;;;1.70;1.08;;;;;;;14.51;55.94;100908.16;5068553;28;20072;-78
2022/09/18 03:54:21;;;;;;;1.48;1.00;;;;;;;14.45;55.94;100901.59;5084832;28;20567;-79
2022/09/18 03:56:48;;;;;;;4.15;1.05;;;;;;;14.62;55.71;100941.84;5084994;28;20736;-79
2022/09/18 03:59:15;;;;;;;1.60;0.98;;;;;;;14.50;56.25;100927.88;5084525;28;20064;-79
2022/09/18 04:01:41;;;;;;;1.50;1.00;;;;;;;14.18;56.15;100891.88;5067612;28;20065;-78
2022/09/18 04:04:08;;;;;;;3.90;1.13;;;;;;;14.29;55.99;100909.47;5084580;28;20083;-80
2022/09/18 04:06:35;;;;;;;2.90;1.00;;;;;;;14.52;56.17;100949.94;5067720;28;20048;-79
2022/09/18 04:09:01;;;;;;;0.80;0.65;;;;;;;14.47;54.97;100942.38;5067901;28;20044;-79
2022/09/18 04:11:28;;;;;;;3.88;0.93;;;;;;;14.43;55.05;100926.78;5084903;28;20140;-80
2022/09/18 04:13:55;;;;;;;1.05;0.82;;;;;;;14.57;55.44;100955.69;5067796;28;20060;-79
2022/09/18 04:16:22;;;;;;;2.40;1.00;;;;;;;14.55;55.42;100957.66;5067875;28;20044;-78
2022/09/18 04:18:48;;;;;;;1.40;0.80;;;;;;;14.50;55.48;100959.91;5084952;28;20075;-77
2022/09/18 04:21:15;;;;;;;1.05;0.95;;;;;;;14.33;54.88;100940.22;5067999;28;20048;-78
2022/09/18 04:23:41;;;;;;;3.00;0.80;;;;;;;14.17;55.49;100924.03;5068064;28;20056;-79
2022/09/18 04:26:09;;;;;;;1.17;0.82;;;;;;;14.58;54.31;100968.03;5084291;28;20048;-79
2022/09/18 04:28:36;;;;;;;0.73;0.70;;;;;;;14.64;55.12;100967.44;5068081;28;20049;-77
2022/09/18 04:31:03;;;;;;;1.40;0.90;;;;;;;14.47;54.84;100941.53;5067818;28;20399;-78
2022/09/18 04:33:30;;;;;;;1.90;1.25;;;;;;;14.38;53.70;100935.28;5084398;28;20508;-80
2022/09/18 04:35:57;;;;;;;2.50;0.80;;;;;;;14.75;54.71;100964.50;5067669;28;20102;-79
2022/09/18 04:38:28;;;;;;;1.77;0.88;;;;;;;15.10;54.19;100976.13;5066167;28;20133;-77
2022/09/18 04:40:56;;;;;;;2.15;1.10;;;;;;;15.09;53.04;100947.69;5067589;28;20056;-80
2022/09/18 04:43:24;;;;;;;1.65;1.00;;;;;;;14.98;52.96;100956.00;5067325;28;20080;-79
2022/09/18 04:45:51;;;;;;;1.70;0.90;;;;;;;14.61;53.83;100935.69;5067224;28;20086;-79
2022/09/18 04:48:18;;;;;;;1.13;0.75;;;;;;;14.73;53.59;100982.53;5067321;28;20339;-78
2022/09/18 04:50:46;;;;;;;1.30;1.13;;;;;;;14.70;52.70;100998.03;5084139;28;20055;-80
2022/09/18 04:53:12;;;;;;;3.00;1.40;;;;;;;14.36;53.66;100955.09;5067448;28;20127;-79
2022/09/18 04:55:41;;;;;;;1.42;0.85;;;;;;;14.52;53.99;100992.66;5067721;28;20518;-78
2022/09/18 04:58:08;;;;;;;4.03;1.13;;;;;;;14.65;54.05;101009.16;5066793;28;20105;-81
2022/09/18 05:00:37;;;;;;;2.08;0.85;;;;;;;14.64;53.82;101002.16;5066828;28;20149;-78
2022/09/18 05:03:04;;;;;;;3.42;0.90;;;;;;;14.72;53.04;100970.16;5083284;28;20098;-78
2022/09/18 05:05:31;;;;;;;1.25;0.70;;;;;;;14.98;51.44;100992.56;5066594;28;20214;-78
2022/09/18 05:07:59;;;;;;;1.02;0.93;;;;;;;15.21;51.89;101006.28;5062204;28;20049;-77
2022/09/18 05:10:26;;;;;;;1.25;0.70;;;;;;;15.12;51.79;101008.03;5046701;28;20476;-79
2022/09/18 05:12:53;;;;;;;1.75;0.95;;;;;;;14.93;51.97;100987.72;5048498;28;20048;-78
2022/09/18 05:15:20;;;;;;;1.55;0.77;;;;;;;15.03;51.02;101015.19;5046379;28;20080;-77
2022/09/18 05:17:47;;;;;;;2.10;0.82;;;;;;;15.07;52.14;101019.25;5073862;28;20568;-77
2022/09/18 05:20:14;;;;;;;1.65;0.98;;;;;;;15.01;51.32;101021.69;5083115;28;20048;-79
2022/09/18 05:22:45;;;;;;;1.27;0.88;;;;;;;14.87;52.45;101009.69;5066546;28;20040;-78
2022/09/18 05:25:12;;;;;;;1.33;0.75;;;;;;;14.81;52.76;101019.19;5067330;28;20415;-78
2022/09/18 05:27:38;;;;;;;2.28;0.90;;;;;;;14.59;52.67;100990.22;5067849;28;20480;-79
2022/09/18 05:30:06;;;;;;;1.35;0.95;;;;;;;14.70;53.23;101014.91;5083037;28;20048;-79
2022/09/18 05:32:32;;;;;;;3.22;0.90;;;;;;;14.92;52.88;101029.63;5065673;28;20051;-79
2022/09/18 05:34:59;;;;;;;4.03;0.98;;;;;;;14.81;52.47;101029.03;5066231;28;20151;-78
2022/09/18 05:37:26;;;;;;;2.38;1.02;;;;;;;14.75;53.11;101023.28;5082549;28;20454;-78
2022/09/18 05:39:53;;;;;;;2.22;0.90;;;;;;;14.63;53.33;101002.31;5067076;28;20049;-78
2022/09/18 05:42:19;;;;;;;0.98;0.73;;;;;;;14.83;52.81;101035.03;5065870;28;20134;-79
2022/09/18 05:44:46;;;;;;;2.58;0.65;;;;;;;14.82;52.52;101044.06;5065726;28;20048;-79
2022/09/18 05:47:12;;;;;;;2.88;0.90;;;;;;;14.83;52.93;101057.28;5065654;28;20040;-78
2022/09/18 05:49:39;;;;;;;1.88;1.00;;;;;;;14.84;52.83;101052.78;5063419;28;20048;-79
2022/09/18 05:52:05;;;;;;;1.20;1.00;;;;;;;14.83;52.75;101062.63;5065717;28;20488;-78
2022/09/18 05:54:35;;;;;;;2.97;0.73;;;;;;;14.48;52.45;101002.81;5065967;28;20091;-79
2022/09/18 05:57:01;;;;;;;1.48;0.90;;;;;;;14.80;52.18;101049.56;5065876;28;20267;-80
2022/09/18 05:59:28;;;;;;;2.25;1.02;;;;;;;14.96;53.87;101071.09;5072805;28;20068;-81
2022/09/18 06:01:54;;;;;;;1.95;0.60;;;;;;;15.02;54.04;101066.97;5089578;28;20083;-80
2022/09/18 06:04:21;;;;;;;2.63;0.80;;;;;;;15.05;54.23;101069.34;5090346;28;20037;-80
2022/09/18 06:06:48;;;;;;;3.50;1.00;;;;;;;15.18;52.94;101061.75;5088616;28;20048;-81
2022/09/18 06:09:15;;;;;;;1.27;1.00;;;;;;;15.09;53.02;101038.59;5070716;28;20110;-80
2022/09/18 06:11:41;;;;;;;2.45;1.30;;;;;;;14.70;51.83;100982.81;5066311;28;20080;-80
2022/09/18 06:14:08;;;;;;;6.53;1.73;;;;;;;15.26;53.81;101066.31;5066048;28;20140;-80
2022/09/18 06:16:35;;;;;;;3.13;1.58;;;;;;;15.20;54.13;101052.75;5065795;28;20080;-78
2022/09/18 06:19:07;;;;;;;2.47;1.48;;;;;;;15.27;53.75;101065.34;5065782;28;20098;-79
2022/09/18 06:21:34;;;;;;;2.75;1.48;;;;;;;15.35;54.98;101077.94;5045085;28;20059;-80
2022/09/18 06:24:01;;;;;;;3.03;1.48;;;;;;;15.29;55.26;101057.13;5048889;28;20148;-79
2022/09/18 06:26:35;;;;;;;5.22;1.98;;;;;;;15.47;55.64;101082.03;5045223;28;20508;-76
2022/09/18 06:29:01;;;;;;;5.60;2.00;;;;;;;15.43;56.56;101075.31;5061407;28;20455;-78
2022/09/18 06:31:28;;;;;;;3.50;1.65;;;;;;;15.05;56.91;101010.53;5045169;28;20572;-78
2022/09/18 06:33:55;;;;;;;5.00;3.47;;;;;;;15.56;57.35;101086.44;5045027;28;20049;-77
2022/09/18 06:36:22;;;;;;;3.90;2.20;;;;;;;15.34;57.60;101046.81;5045088;28;20085;-77
2022/09/18 06:38:50;;;;;;;7.90;2.60;;;;;;;15.33;58.09;101048.66;5045079;28;20064;-77
2022/09/18 06:41:17;;;;;;;4.13;1.48;;;;;;;15.66;56.78;101090.88;5045084;28;20049;-80
2022/09/18 06:43:48;;;;;;;1.70;1.52;;;;;;;15.75;56.85;101089.91;5044688;28;20048;-77
2022/09/18 06:46:15;;;;;;;4.03;1.42;;;;;;;15.80;57.43;101093.81;5066003;28;20166;-77
2022/09/18 06:48:41;;;;;;;7.22;1.70;;;;;;;15.72;57.86;101052.78;5066747;28;20253;-79
2022/09/18 06:51:08;;;;;;;3.10;1.42;;;;;;;15.89;57.47;101078.63;5066863;28;20499;-79
2022/09/18 06:53:35;;;;;;;6.82;1.75;;;;;;;16.00;56.97;101085.56;5065402;28;20050;-77
2022/09/18 06:56:02;;;;;;;5.80;1.30;;;;;;;16.12;56.77;101096.84;5066696;28;20139;-79
2022/09/18 06:58:29;;;;;;;5.00;1.48;;;;;;;16.12;56.14;101081.59;5065197;28;20059;-77
2022/09/18 07:00:58;;;;;;;1.40;1.30;;;;;;;16.30;56.20;101100.25;5081412;28;20460;-78
2022/09/18 07:03:25;;;;;;;6.07;3.03;;;;;;;16.26;56.24;101077.44;5066208;28;20060;-78
2022/09/18 07:05:52;;;;;;;4.43;1.92;;;;;;;16.42;56.04;101093.59;5066497;28;20447;-80
2022/09/18 07:08:18;;;;;;;8.70;2.03;;;;;;;16.27;55.92;101063.06;5081280;28;20056;-79
2022/09/18 07:10:48;;;;;;;3.67;1.55;;;;;;;16.45;57.01;101087.88;5064360;28;20048;-78
2022/09/18 07:13:15;;;;;;;4.40;1.55;;;;;;;16.69;56.12;101114.94;5081378;28;20079;-78
2022/09/18 07:15:47;;;;;;;4.15;1.55;;;;;;;16.50;55.28;101065.13;5057270;28;20045;-76
2022/09/18 07:18:14;;;;;;;6.97;1.75;;;;;;;16.82;55.28;101105.44;5044828;28;20127;-77
2022/09/18 07:20:40;;;;;;;3.33;1.70;;;;;;;16.80;54.06;101095.91;5045516;28;20056;-78
2022/09/18 07:23:07;;;;;;;12.65;1.88;;;;;;;16.92;54.04;101107.97;5044644;28;20045;-78
2022/09/18 07:25:37;;;;;;;8.75;2.20;;;;;;;16.98;54.48;101106.47;5051622;28;20457;-78
2022/09/18 07:28:06;;;;;;;5.95;1.70;;;;;;;16.96;54.25;101100.44;5081138;28;20491;-79
2022/09/18 07:30:34;;;;;;;4.70;1.67;;;;;;;17.15;52.21;101120.75;5065420;28;20512;-79
2022/09/18 07:33:02;;;;;;;4.47;1.25;;;;;;;17.22;50.06;101127.13;5063771;28;20518;-78
2022/09/18 07:35:31;;;;;;;4.55;1.58;;;;;;;17.28;48.50;101127.28;5073918;28;20688;-81
2022/09/18 07:37:59;;;;;;;3.25;1.10;;;;;;;17.38;47.49;101118.22;5065462;28;20134;-79
2022/09/18 07:40:27;;;;;;;4.53;1.70;;;;;;;17.44;47.74;101128.28;5064135;28;20132;-79
2022/09/18 07:42:59;;;;;;;2.25;1.58;;;;;;;17.54;48.07;101120.88;5065994;28;20385;-79
2022/09/18 07:45:25;;;;;;;;;;;;;;;17.58;44.53;101122.25;5051606;28;20137;-80
2022/09/18 07:47:52;;;;;;;5.35;1.48;;;;;;;17.64;46.30;101115.34;5051279;28;20385;-79
2022/09/18 07:50:18;;;;;;;3.95;1.38;;;;;;;17.88;48.85;101123.38;5044024;28;20514;-80
2022/09/18 07:52:53;;;;;;;1.70;1.40;;;;;;;17.66;46.54;101059.63;5045272;28;20516;-78
2022/09/18 07:55:20;;;;;;;5.07;1.02;;;;;;;18.03;43.95;101110.06;5044256;28;20136;-79
2022/09/18 07:57:53;;;;;;;1.38;0.75;;;;;;;18.21;44.22;101127.84;5060255;28;20160;-77
2022/09/18 08:00:20;;;;;;;2.65;0.85;;;;;;;18.31;42.09;101123.09;5063822;28;20456;-77
2022/09/18 08:02:47;;;;;;;1.38;1.02;;;;;;;18.34;41.09;101123.56;5063966;28;20048;-76
2022/09/18 08:05:14;;;;;;;2.38;1.20;;;;;;;18.22;40.71;101102.63;5050598;28;20135;-77
2022/09/18 08:07:40;;;;;;;1.33;0.70;;;;;;;18.49;39.98;101123.66;5044327;28;20131;-79
2022/09/18 08:10:09;;;;;;;2.55;0.60;;;;;;;18.54;39.63;101118.63;5060403;28;20057;-77
2022/09/18 08:12:36;;;;;;;1.17;0.75;;;;;;;18.60;37.91;101127.00;5046118;28;20049;-79
2022/09/18 08:15:03;;;;;;;0.90;0.70;;;;;;;18.62;38.58;101135.69;5047708;28;20053;-80
2022/09/18 08:17:30;;;;;;;0.98;0.70;;;;;;;18.60;38.47;101121.59;5048157;28;20053;-77
2022/09/18 08:19:57;;;;;;;2.05;0.85;;;;;;;18.77;38.72;101139.34;5047030;28;20543;-80
2022/09/18 08:22:24;;;;;;;1.25;0.82;;;;;;;19.03;41.43;101154.31;5048038;28;20049;-78
2022/09/18 08:24:50;;;;;;;1.90;0.57;;;;;;;19.10;38.65;101147.19;5048071;28;20059;-77
2022/09/18 08:27:17;;;;;;;2.08;0.80;;;;;;;19.14;36.74;101132.38;5047162;28;20048;-79
2022/09/18 08:29:44;;;;;;;1.70;0.73;;;;;;;19.19;37.86;101138.88;5047655;28;20048;-77
2022/09/18 08:32:11;;;;;;;3.15;0.70;;;;;;;18.93;36.00;101095.34;5047198;28;20057;-79
2022/09/18 08:34:37;;;;;;;3.20;1.08;;;;;;;19.38;36.80;101159.09;5047260;28;20596;-77
2022/09/18 08:37:04;;;;;;;1.10;0.68;;;;;;;19.29;33.18;101127.03;5052637;28;20045;-77
2022/09/18 08:39:31;;;;;;;1.75;0.90;;;;;;;19.50;35.56;101151.44;5067238;28;20090;-78
2022/09/18 08:42:06;;;;;;;3.05;0.63;;;;;;;19.45;35.25;101150.31;5067660;28;20077;-78
2022/09/18 08:44:45;;;;;;;1.15;0.90;;;;;;;19.53;34.72;101155.63;5066793;28;20403;-78
2022/09/18 08:47:21;;;;;;;1.23;0.60;;;;;;;19.60;34.43;101156.56;5067085;28;20147;-79
2022/09/18 08:49:56;;;;;;;0.65;0.65;;;;;;;19.68;32.59;101148.44;5067912;28;20631;-75
2022/09/18 08:52:27;;;;;;;2.45;0.82;;;;;;;19.74;33.41;101163.88;5066895;28;20063;-78
2022/09/18 08:54:55;;;;;;;1.23;0.80;;;;;;;19.29;35.22;101084.81;5068074;28;20051;-80
2022/09/18 08:57:31;;;;;;;4.28;0.52;;;;;;;19.67;35.96;101140.53;5066399;28;20131;-80
2022/09/18 09:00:02;;;;;;;3.72;1.08;;;;;;;19.71;35.86;101142.69;5066407;28;20441;-79
2022/09/18 09:02:29;;;;;;;0.93;0.50;;;;;;;19.97;36.59;101165.66;5066372;28;20135;-78
2022/09/18 09:05:00;;;;;;;1.15;0.90;;;;;;;18.85;34.78;100961.75;5066679;28;20047;-78
2022/09/18 09:07:35;;;;;;;1.17;0.80;;;;;;;20.09;36.03;101149.88;5065750;28;20098;-79
2022/09/18 09:10:24;;;;;;;1.00;0.88;;;;;;;19.72;36.00;101087.78;5071151;28;20051;-80
2022/09/18 09:12:53;;;;;;;2.22;0.75;;;;;;;20.22;36.12;101167.09;5050817;28;20053;-77
2022/09/18 09:15:40;;;;;;;2.83;1.08;;;;;;;20.47;33.40;101154.13;5047159;28;20563;-80
2022/09/18 09:18:21;;;;;;;1.55;0.65;;;;;;;20.56;33.42;101157.59;5046308;28;20581;-79
2022/09/18 09:20:55;;;;;;;1.20;0.80;;;;;;;20.73;35.53;101157.34;5057043;28;20059;-78
2022/09/18 09:23:37;;;;;;;2.72;0.93;;;;;;;20.90;32.39;101145.34;5065338;28;20072;-81
2022/09/18 09:26:12;;;;;;;1.25;0.77;;;;;;;21.01;30.50;101133.19;5048190;28;20452;-79
2022/09/18 09:28:50;;;;;;;1.73;0.70;;;;;;;21.22;35.13;101156.66;5046197;28;20067;-78
2022/09/18 09:31:22;;;;;;;1.73;0.70;;;;;;;21.19;33.11;101141.69;5047747;28;20060;-79
2022/09/18 09:34:14;;;;;;;0.63;0.60;;;;;;;21.47;33.22;101155.25;5045496;28;20132;-78
2022/09/18 09:36:42;;;;;;;;;;;;;;;21.54;32.13;101155.31;5049175;28;20056;-79
2022/09/18 09:39:39;;;;;;;1.05;0.70;;;;;;;21.70;31.22;101148.75;5082401;28;19921;-79
2022/09/18 09:42:20;;;;;;;0.60;0.60;;;;;;;21.77;32.62;101150.50;5067241;28;20210;-79
2022/09/18 09:44:58;;;;;;;1.35;0.80;;;;;;;21.98;31.18;101157.69;5059430;28;20095;-78
2022/09/18 09:47:48;;;;;;;2.22;0.47;;;;;;;22.01;32.04;101166.44;5046198;28;20496;-79
2022/09/18 09:50:24;;;;;;;2.03;0.60;;;;;;;21.98;33.75;101157.69;5082035;28;20506;-79
2022/09/18 09:52:57;;;;;;;1.02;0.82;;;;;;;22.05;32.19;101156.91;5067169;28;20104;-79
2022/09/18 09:55:56;;;;;;;1.15;0.68;;;;;;;22.18;32.31;101163.22;5065903;28;20048;-80
2022/09/18 09:58:38;;;;;;;1.85;0.70;;;;;;;22.27;33.90;101161.22;5068584;28;20133;-80
2022/09/18 10:01:04;;;;;;;1.48;1.15;;;;;;;21.99;33.53;101093.66;5065070;28;20254;-79
2022/09/18 10:04:00;;;;;;;1.50;0.90;;;;;;;22.50;33.29;101160.09;5062805;28;20059;-79
2022/09/18 10:06:50;;;;;;;1.15;1.05;;;;;;;22.60;33.69;101147.03;5064030;28;20051;-78
2022/09/18 10:09:23;;;;;;;1.33;1.02;;;;;;;22.77;32.10;101145.63;5066035;28;20055;-80
2022/09/18 10:12:22;;;;;;;1.00;0.73;;;;;;;22.65;33.68;101109.38;5077799;28;20049;-79
2022/09/18 10:14:53;;;;;;;1.67;0.85;;;;;;;23.12;31.08;101150.13;5090218;28;20139;-80
2022/09/18 10:17:22;;;;;;;1.17;0.80;;;;;;;23.15;32.30;101136.97;5076794;28;20053;-78
2022/09/18 10:19:49;;;;;;;0.70;0.60;;;;;;;23.06;31.79;101111.16;5078492;28;20052;-81
2022/09/18 10:22:21;;;;;;;0.93;0.55;;;;;;;23.14;30.63;101105.53;5068653;28;20094;-79
2022/09/18 10:25:00;;;;;;;1.63;0.65;;;;;;;23.43;31.77;101138.69;5066157;28;20714;-79
2022/09/18 10:27:27;;;;;;;1.38;0.60;;;;;;;23.42;31.90;101124.31;5065082;28;20059;-80
2022/09/18 10:29:54;;;;;;;0.90;0.60;;;;;;;23.45;31.39;101121.16;5081648;28;20052;-80
2022/09/18 10:32:35;;;;;;;1.23;0.65;;;;;;;23.48;31.31;101103.66;5081731;28;20496;-79
2022/09/18 10:35:24;;;;;;;1.20;0.70;;;;;;;23.92;30.59;101129.28;5064728;28;20452;-78
2022/09/18 10:37:50;;;;;;;1.45;0.50;;;;;;;24.08;29.15;101136.97;5064878;28;20110;-80
2022/09/18 10:40:47;;;;;;;1.75;0.52;;;;;;;24.12;29.41;101137.34;5064858;28;20123;-78
2022/09/18 10:43:17;;;;;;;1.20;0.55;;;;;;;23.96;31.00;101111.53;5068339;28;20052;-78
2022/09/18 10:45:54;;;;;;;1.08;0.60;;;;;;;24.02;29.95;101118.81;5063474;28;20140;-80
2022/09/18 10:48:24;;;;;;;5.55;0.88;;;;;;;24.14;29.55;101115.44;5066301;28;20479;-78
2022/09/18 10:50:56;;;;;;;0.93;0.60;;;;;;;24.33;30.27;101130.00;5064691;28;20129;-80
2022/09/18 10:53:22;;;;;;;2.40;0.65;;;;;;;24.28;29.13;101081.81;5065890;28;20071;-78
2022/09/18 10:55:51;;;;;;;1.45;0.50;;;;;;;24.51;31.05;101120.13;5064334;28;20728;-79
2022/09/18 10:58:29;;;;;;;0.80;0.52;;;;;;;24.42;32.09;101083.41;5063348;28;20048;-79
2022/09/18 11:01:05;;;;;;;1.50;0.70;;;;;;;24.76;30.72;101124.81;5064304;28;20110;-79
2022/09/18 11:04:01;;;;;;;0.80;0.65;;;;;;;24.89;29.98;101108.44;5064574;28;20139;-80
2022/09/18 11:06:31;;;;;;;1.08;0.70;;;;;;;24.97;29.69;101106.50;5065742;28;20140;-79
2022/09/18 11:09:07;;;;;;;0.90;0.57;;;;;;;25.24;30.93;101107.16;5064346;28;20049;-79
2022/09/18 11:11:36;;;;;;;1.92;0.60;;;;;;;25.18;27.52;101094.47;5064784;28;20404;-78
2022/09/18 11:14:07;;;;;;;1.70;0.88;;;;;;;25.23;28.23;101100.91;5064527;28;20128;-79
2022/09/18 11:16:41;;;;;;;1.35;0.70;;;;;;;25.20;27.57;101078.78;5064384;28;20059;-80
2022/09/18 11:19:17;;;;;;;1.73;1.00;;;;;;;25.37;28.72;101107.06;5064200;28;20052;-81
2022/09/18 11:21:47;;;;;;;1.17;0.77;;;;;;;25.09;30.03;101040.38;5065306;28;20048;-80
2022/09/18 11:24:36;;;;;;;1.60;0.70;;;;;;;25.25;29.79;101066.19;5065858;28;20048;-77
2022/09/18 11:27:18;;;;;;;3.28;0.80;;;;;;;25.62;30.51;101098.88;5067802;28;20134;-79
2022/09/18 11:29:44;;;;;;;1.50;0.80;;;;;;;25.62;29.02;101109.75;5066520;28;20434;-77
2022/09/18 11:32:12;;;;;;;3.42;0.80;;;;;;;25.72;28.87;101099.19;5064261;28;20132;-79
2022/09/18 11:34:47;;;;;;;1.73;0.75;;;;;;;25.76;27.73;101105.84;5064284;28;20071;-80
2022/09/18 11:37:27;;;;;;;0.90;0.52;;;;;;;25.85;28.42;101095.53;5063897;28;20127;-80
2022/09/18 11:39:59;;;;;;;0.70;0.57;;;;;;;25.92;26.96;101092.75;5063814;28;20565;-80
2022/09/18 11:42:26;;;;;;;1.33;0.70;;;;;;;25.94;27.46;101064.25;5064516;28;20060;-79
2022/09/18 11:45:27;;;;;;;0.90;0.47;;;;;;;26.23;25.40;101089.03;5064155;28;20048;-79
2022/09/18 11:48:10;;;;;;;1.13;0.75;;;;;;;26.24;26.74;101071.66;5067739;28;20048;-80